sensor_id;sensor_type;location;lat;lon;timestamp;P1;durP1;ratioP1;P2;durP2;ratioP2
18140;SDS011;9196;49.194;12.526;2023-05-10T00:01:51;5.80;;;4.93;;
18140;SDS011;9196;49.194;12.526;2023-05-10T00:04:18;4.93;;;4.53;;
18140;SDS011;9196;49.194;12.526;2023-05-10T00:06:46;5.50;;;4.40;;
18140;SDS011;9196;49.194;12.526;2023-05-10T00:09:13;5.40;;;4.20;;
18140;SDS011;9196;49.194;12.526;2023-05-10T00:11:40;4.97;;;4.47;;
18140;SDS011;9196;49.194;12.526;2023-05-10T00:14:07;5.23;;;4.67;;
18140;SDS011;9196;49.194;12.526;2023-05-10T00:16:34;5.90;;;4.10;;
18140;SDS011;9196;49.194;12.526;2023-05-10T00:19:00;4.67;;;4.37;;
18140;SDS011;9196;49.194;12.526;2023-05-10T00:21:27;4.97;;;4.47;;
18140;SDS011;9196;49.194;12.526;2023-05-10T00:23:55;7.80;;;4.17;;
18140;SDS011;9196;49.194;12.526;2023-05-10T00:26:22;5.13;;;4.00;;
18140;SDS011;9196;49.194;12.526;2023-05-10T00:28:49;3.20;;;3.00;;
18140;SDS011;9196;49.194;12.526;2023-05-10T00:31:16;4.10;;;3.80;;
18140;SDS011;9196;49.194;12.526;2023-05-10T00:33:43;4.70;;;4.00;;
18140;SDS011;9196;49.194;12.526;2023-05-10T00:36:10;4.20;;;3.67;;
18140;SDS011;9196;49.194;12.526;2023-05-10T00:38:37;4.57;;;4.17;;
18140;SDS011;9196;49.194;12.526;2023-05-10T00:41:05;6.43;;;3.77;;
18140;SDS011;9196;49.194;12.526;2023-05-10T00:43:32;4.00;;;3.70;;
18140;SDS011;9196;49.194;12.526;2023-05-10T00:45:59;4.90;;;3.97;;
18140;SDS011;9196;49.194;12.526;2023-05-10T00:48:25;3.93;;;3.60;;
18140;SDS011;9196;49.194;12.526;2023-05-10T00:50:52;4.20;;;3.90;;
18140;SDS011;9196;49.194;12.526;2023-05-10T00:53:19;5.10;;;3.73;;
18140;SDS011;9196;49.194;12.526;2023-05-10T00:55:46;9.83;;;4.23;;
18140;SDS011;9196;49.194;12.526;2023-05-10T00:58:14;8.00;;;3.87;;
18140;SDS011;9196;49.194;12.526;2023-05-10T01:00:41;3.87;;;3.30;;
18140;SDS011;9196;49.194;12.526;2023-05-10T01:03:09;5.10;;;4.00;;
18140;SDS011;9196;49.194;12.526;2023-05-10T01:05:36;7.33;;;3.93;;
18140;SDS011;9196;49.194;12.526;2023-05-10T01:08:03;3.90;;;3.67;;
18140;SDS011;9196;49.194;12.526;2023-05-10T01:10:31;9.93;;;4.57;;
18140;SDS011;9196;49.194;12.526;2023-05-10T01:12:58;4.23;;;3.93;;
18140;SDS011;9196;49.194;12.526;2023-05-10T01:15:27;4.20;;;3.83;;
18140;SDS011;9196;49.194;12.526;2023-05-10T01:17:54;5.97;;;4.20;;
18140;SDS011;9196;49.194;12.526;2023-05-10T01:20:21;4.63;;;4.20;;
18140;SDS011;9196;49.194;12.526;2023-05-10T01:23:10;4.07;;;3.77;;
18140;SDS011;9196;49.194;12.526;2023-05-10T01:29:11;6.90;;;3.50;;
18140;SDS011;9196;49.194;12.526;2023-05-10T01:32:10;4.30;;;3.70;;
18140;SDS011;9196;49.194;12.526;2023-05-10T01:34:53;4.47;;;4.07;;
18140;SDS011;9196;49.194;12.526;2023-05-10T01:37:28;14.80;;;4.03;;
18140;SDS011;9196;49.194;12.526;2023-05-10T01:40:03;5.67;;;3.93;;
18140;SDS011;9196;49.194;12.526;2023-05-10T01:42:40;4.17;;;3.87;;
18140;SDS011;9196;49.194;12.526;2023-05-10T01:45:14;4.57;;;4.20;;
18140;SDS011;9196;49.194;12.526;2023-05-10T01:47:48;8.37;;;3.90;;
18140;SDS011;9196;49.194;12.526;2023-05-10T01:50:22;4.37;;;4.07;;
18140;SDS011;9196;49.194;12.526;2023-05-10T01:52:54;4.50;;;4.20;;
18140;SDS011;9196;49.194;12.526;2023-05-10T01:55:24;8.13;;;3.33;;
18140;SDS011;9196;49.194;12.526;2023-05-10T01:57:55;8.60;;;3.53;;
18140;SDS011;9196;49.194;12.526;2023-05-10T02:00:26;5.17;;;4.67;;
18140;SDS011;9196;49.194;12.526;2023-05-10T02:02:56;4.80;;;3.80;;
18140;SDS011;9196;49.194;12.526;2023-05-10T02:05:23;4.97;;;4.27;;
18140;SDS011;9196;49.194;12.526;2023-05-10T02:07:51;4.53;;;4.10;;
18140;SDS011;9196;49.194;12.526;2023-05-10T02:10:18;4.20;;;3.90;;
18140;SDS011;9196;49.194;12.526;2023-05-10T02:12:47;6.73;;;4.70;;
18140;SDS011;9196;49.194;12.526;2023-05-10T02:15:17;4.40;;;4.07;;
18140;SDS011;9196;49.194;12.526;2023-05-10T02:17:47;4.27;;;3.87;;
18140;SDS011;9196;49.194;12.526;2023-05-10T02:20:16;8.80;;;3.83;;
18140;SDS011;9196;49.194;12.526;2023-05-10T02:22:45;4.00;;;3.60;;
18140;SDS011;9196;49.194;12.526;2023-05-10T02:25:15;4.50;;;4.10;;
18140;SDS011;9196;49.194;12.526;2023-05-10T02:27:43;4.07;;;3.63;;
18140;SDS011;9196;49.194;12.526;2023-05-10T02:30:12;5.40;;;3.87;;
18140;SDS011;9196;49.194;12.526;2023-05-10T02:32:40;11.90;;;4.50;;
18140;SDS011;9196;49.194;12.526;2023-05-10T02:35:08;5.13;;;4.00;;
18140;SDS011;9196;49.194;12.526;2023-05-10T02:37:38;4.13;;;3.60;;
18140;SDS011;9196;49.194;12.526;2023-05-10T02:40:06;4.80;;;4.20;;
18140;SDS011;9196;49.194;12.526;2023-05-10T02:42:35;5.60;;;4.40;;
18140;SDS011;9196;49.194;12.526;2023-05-10T02:45:05;4.20;;;3.80;;
18140;SDS011;9196;49.194;12.526;2023-05-10T02:47:36;3.30;;;3.10;;
18140;SDS011;9196;49.194;12.526;2023-05-10T02:50:04;5.33;;;4.27;;
18140;SDS011;9196;49.194;12.526;2023-05-10T02:52:36;7.67;;;4.50;;
18140;SDS011;9196;49.194;12.526;2023-05-10T02:55:09;3.67;;;3.33;;
18140;SDS011;9196;49.194;12.526;2023-05-10T02:57:38;4.60;;;4.13;;
18140;SDS011;9196;49.194;12.526;2023-05-10T03:00:09;5.93;;;3.60;;
18140;SDS011;9196;49.194;12.526;2023-05-10T03:02:36;3.57;;;3.37;;
18140;SDS011;9196;49.194;12.526;2023-05-10T03:05:03;4.30;;;3.90;;
18140;SDS011;9196;49.194;12.526;2023-05-10T03:07:31;6.40;;;4.00;;
18140;SDS011;9196;49.194;12.526;2023-05-10T03:10:00;4.50;;;4.10;;
18140;SDS011;9196;49.194;12.526;2023-05-10T03:12:31;5.43;;;4.93;;
18140;SDS011;9196;49.194;12.526;2023-05-10T03:15:03;5.07;;;4.57;;
18140;SDS011;9196;49.194;12.526;2023-05-10T03:17:40;4.93;;;4.03;;
18140;SDS011;9196;49.194;12.526;2023-05-10T03:20:16;5.97;;;5.40;;
18140;SDS011;9196;49.194;12.526;2023-05-10T03:22:49;5.10;;;4.70;;
18140;SDS011;9196;49.194;12.526;2023-05-10T03:25:20;12.53;;;4.83;;
18140;SDS011;9196;49.194;12.526;2023-05-10T03:27:47;6.00;;;4.30;;
18140;SDS011;9196;49.194;12.526;2023-05-10T03:30:15;8.40;;;4.60;;
18140;SDS011;9196;49.194;12.526;2023-05-10T03:32:42;10.07;;;5.07;;
18140;SDS011;9196;49.194;12.526;2023-05-10T03:35:09;5.37;;;4.97;;
18140;SDS011;9196;49.194;12.526;2023-05-10T03:37:37;6.03;;;5.00;;
18140;SDS011;9196;49.194;12.526;2023-05-10T03:40:04;6.03;;;5.43;;
18140;SDS011;9196;49.194;12.526;2023-05-10T03:42:33;8.13;;;6.07;;
18140;SDS011;9196;49.194;12.526;2023-05-10T03:45:00;12.07;;;5.70;;
18140;SDS011;9196;49.194;12.526;2023-05-10T03:47:27;8.03;;;5.67;;
18140;SDS011;9196;49.194;12.526;2023-05-10T03:49:54;7.03;;;5.17;;
18140;SDS011;9196;49.194;12.526;2023-05-10T03:52:21;6.20;;;5.60;;
18140;SDS011;9196;49.194;12.526;2023-05-10T03:54:48;6.80;;;6.10;;
18140;SDS011;9196;49.194;12.526;2023-05-10T03:57:15;6.50;;;5.90;;
18140;SDS011;9196;49.194;12.526;2023-05-10T03:59:43;6.43;;;5.83;;
18140;SDS011;9196;49.194;12.526;2023-05-10T04:02:10;6.53;;;5.93;;
18140;SDS011;9196;49.194;12.526;2023-05-10T04:04:37;7.10;;;5.50;;
18140;SDS011;9196;49.194;12.526;2023-05-10T04:07:03;6.33;;;5.70;;
18140;SDS011;9196;49.194;12.526;2023-05-10T04:09:30;7.20;;;6.50;;
18140;SDS011;9196;49.194;12.526;2023-05-10T04:11:58;7.30;;;6.50;;
18140;SDS011;9196;49.194;12.526;2023-05-10T04:14:25;7.57;;;6.70;;
18140;SDS011;9196;49.194;12.526;2023-05-10T04:16:53;8.20;;;6.37;;
18140;SDS011;9196;49.194;12.526;2023-05-10T04:19:20;8.07;;;7.20;;
18140;SDS011;9196;49.194;12.526;2023-05-10T04:21:47;11.43;;;8.13;;
18140;SDS011;9196;49.194;12.526;2023-05-10T04:24:13;6.90;;;6.23;;
18140;SDS011;9196;49.194;12.526;2023-05-10T04:26:40;7.57;;;6.87;;
18140;SDS011;9196;49.194;12.526;2023-05-10T04:29:07;8.13;;;6.50;;
18140;SDS011;9196;49.194;12.526;2023-05-10T04:31:34;8.30;;;6.93;;
18140;SDS011;9196;49.194;12.526;2023-05-10T04:34:02;11.33;;;6.40;;
18140;SDS011;9196;49.194;12.526;2023-05-10T04:36:30;7.40;;;6.80;;
18140;SDS011;9196;49.194;12.526;2023-05-10T04:38:57;8.93;;;6.60;;
18140;SDS011;9196;49.194;12.526;2023-05-10T04:41:24;12.50;;;6.90;;
18140;SDS011;9196;49.194;12.526;2023-05-10T04:43:51;7.10;;;6.40;;
18140;SDS011;9196;49.194;12.526;2023-05-10T04:46:17;7.17;;;6.50;;
18140;SDS011;9196;49.194;12.526;2023-05-10T04:48:44;8.20;;;5.90;;
18140;SDS011;9196;49.194;12.526;2023-05-10T04:51:13;7.27;;;6.47;;
18140;SDS011;9196;49.194;12.526;2023-05-10T04:53:40;8.87;;;6.23;;
18140;SDS011;9196;49.194;12.526;2023-05-10T04:56:06;8.30;;;6.73;;
18140;SDS011;9196;49.194;12.526;2023-05-10T04:58:33;7.13;;;6.23;;
18140;SDS011;9196;49.194;12.526;2023-05-10T05:01:04;8.13;;;7.27;;
18140;SDS011;9196;49.194;12.526;2023-05-10T05:03:32;7.83;;;6.93;;
18140;SDS011;9196;49.194;12.526;2023-05-10T05:05:59;10.13;;;6.57;;
18140;SDS011;9196;49.194;12.526;2023-05-10T05:08:27;8.83;;;7.00;;
18140;SDS011;9196;49.194;12.526;2023-05-10T05:10:54;9.03;;;7.07;;
18140;SDS011;9196;49.194;12.526;2023-05-10T05:13:21;10.50;;;7.30;;
18140;SDS011;9196;49.194;12.526;2023-05-10T05:15:48;7.40;;;6.80;;
18140;SDS011;9196;49.194;12.526;2023-05-10T05:18:14;11.43;;;7.50;;
18140;SDS011;9196;49.194;12.526;2023-05-10T05:20:41;7.40;;;6.20;;
18140;SDS011;9196;49.194;12.526;2023-05-10T05:23:08;6.37;;;5.87;;
18140;SDS011;9196;49.194;12.526;2023-05-10T05:25:36;7.70;;;7.00;;
18140;SDS011;9196;49.194;12.526;2023-05-10T05:28:03;9.30;;;6.47;;
18140;SDS011;9196;49.194;12.526;2023-05-10T05:30:30;6.60;;;6.00;;
18140;SDS011;9196;49.194;12.526;2023-05-10T05:32:57;10.03;;;7.37;;
18140;SDS011;9196;49.194;12.526;2023-05-10T05:35:24;6.60;;;6.00;;
18140;SDS011;9196;49.194;12.526;2023-05-10T05:37:51;7.80;;;7.00;;
18140;SDS011;9196;49.194;12.526;2023-05-10T05:40:17;7.73;;;7.00;;
18140;SDS011;9196;49.194;12.526;2023-05-10T05:42:46;11.03;;;7.37;;
18140;SDS011;9196;49.194;12.526;2023-05-10T05:45:13;10.97;;;6.70;;
18140;SDS011;9196;49.194;12.526;2023-05-10T05:47:40;8.27;;;6.90;;
18140;SDS011;9196;49.194;12.526;2023-05-10T05:50:07;8.80;;;7.83;;
18140;SDS011;9196;49.194;12.526;2023-05-10T05:52:34;8.57;;;7.67;;
18140;SDS011;9196;49.194;12.526;2023-05-10T05:55:01;7.00;;;6.27;;
18140;SDS011;9196;49.194;12.526;2023-05-10T05:57:28;7.70;;;6.20;;
18140;SDS011;9196;49.194;12.526;2023-05-10T05:59:57;6.10;;;5.60;;
18140;SDS011;9196;49.194;12.526;2023-05-10T06:02:24;7.87;;;7.17;;
18140;SDS011;9196;49.194;12.526;2023-05-10T06:04:51;6.20;;;5.63;;
18140;SDS011;9196;49.194;12.526;2023-05-10T06:07:18;6.70;;;6.00;;
18140;SDS011;9196;49.194;12.526;2023-05-10T06:09:45;13.33;;;7.57;;
18140;SDS011;9196;49.194;12.526;2023-05-10T06:12:12;9.70;;;6.73;;
18140;SDS011;9196;49.194;12.526;2023-05-10T06:14:39;8.10;;;7.20;;
18140;SDS011;9196;49.194;12.526;2023-05-10T06:17:07;7.47;;;6.70;;
18140;SDS011;9196;49.194;12.526;2023-05-10T06:19:33;7.33;;;6.73;;
18140;SDS011;9196;49.194;12.526;2023-05-10T06:22:01;8.70;;;6.93;;
18140;SDS011;9196;49.194;12.526;2023-05-10T06:24:28;8.27;;;6.73;;
18140;SDS011;9196;49.194;12.526;2023-05-10T06:26:55;7.87;;;7.00;;
18140;SDS011;9196;49.194;12.526;2023-05-10T06:29:25;10.73;;;6.50;;
18140;SDS011;9196;49.194;12.526;2023-05-10T06:31:51;6.90;;;6.30;;
18140;SDS011;9196;49.194;12.526;2023-05-10T06:34:20;7.30;;;6.60;;
18140;SDS011;9196;49.194;12.526;2023-05-10T06:36:47;8.70;;;6.73;;
18140;SDS011;9196;49.194;12.526;2023-05-10T06:39:14;6.37;;;5.77;;
18140;SDS011;9196;49.194;12.526;2023-05-10T06:41:40;8.97;;;6.87;;
18140;SDS011;9196;49.194;12.526;2023-05-10T06:44:07;10.33;;;7.03;;
18140;SDS011;9196;49.194;12.526;2023-05-10T06:46:34;8.00;;;6.47;;
18140;SDS011;9196;49.194;12.526;2023-05-10T06:49:01;8.40;;;6.63;;
18140;SDS011;9196;49.194;12.526;2023-05-10T06:51:29;11.63;;;7.10;;
18140;SDS011;9196;49.194;12.526;2023-05-10T06:53:57;11.90;;;8.33;;
18140;SDS011;9196;49.194;12.526;2023-05-10T06:56:24;13.80;;;8.37;;
18140;SDS011;9196;49.194;12.526;2023-05-10T06:58:51;9.00;;;6.47;;
18140;SDS011;9196;49.194;12.526;2023-05-10T07:01:18;9.70;;;7.33;;
18140;SDS011;9196;49.194;12.526;2023-05-10T07:03:44;7.87;;;7.17;;
18140;SDS011;9196;49.194;12.526;2023-05-10T07:06:11;8.50;;;7.73;;
18140;SDS011;9196;49.194;12.526;2023-05-10T07:08:39;11.80;;;10.50;;
18140;SDS011;9196;49.194;12.526;2023-05-10T07:11:06;9.00;;;7.97;;
18140;SDS011;9196;49.194;12.526;2023-05-10T07:13:33;8.13;;;6.63;;
18140;SDS011;9196;49.194;12.526;2023-05-10T07:16:01;10.53;;;6.77;;
18140;SDS011;9196;49.194;12.526;2023-05-10T07:18:28;8.93;;;6.70;;
18140;SDS011;9196;49.194;12.526;2023-05-10T07:20:54;9.60;;;6.63;;
18140;SDS011;9196;49.194;12.526;2023-05-10T07:23:23;12.50;;;7.40;;
18140;SDS011;9196;49.194;12.526;2023-05-10T07:25:51;8.20;;;7.20;;
18140;SDS011;9196;49.194;12.526;2023-05-10T07:28:18;6.90;;;6.20;;
18140;SDS011;9196;49.194;12.526;2023-05-10T07:30:45;10.20;;;7.47;;
18140;SDS011;9196;49.194;12.526;2023-05-10T07:33:12;7.73;;;6.93;;
18140;SDS011;9196;49.194;12.526;2023-05-10T07:35:40;14.30;;;6.60;;
18140;SDS011;9196;49.194;12.526;2023-05-10T07:38:07;13.03;;;8.87;;
18140;SDS011;9196;49.194;12.526;2023-05-10T07:40:36;9.80;;;7.57;;
18140;SDS011;9196;49.194;12.526;2023-05-10T07:43:04;10.00;;;7.77;;
18140;SDS011;9196;49.194;12.526;2023-05-10T07:45:31;9.57;;;8.60;;
18140;SDS011;9196;49.194;12.526;2023-05-10T07:47:59;10.23;;;8.30;;
18140;SDS011;9196;49.194;12.526;2023-05-10T07:50:26;12.13;;;7.60;;
18140;SDS011;9196;49.194;12.526;2023-05-10T07:52:52;7.83;;;7.03;;
18140;SDS011;9196;49.194;12.526;2023-05-10T07:55:19;9.63;;;7.40;;
18140;SDS011;9196;49.194;12.526;2023-05-10T07:57:47;20.00;;;7.40;;
18140;SDS011;9196;49.194;12.526;2023-05-10T08:00:16;8.60;;;7.17;;
18140;SDS011;9196;49.194;12.526;2023-05-10T08:02:44;7.20;;;6.57;;
18140;SDS011;9196;49.194;12.526;2023-05-10T08:05:11;10.30;;;7.90;;
18140;SDS011;9196;49.194;12.526;2023-05-10T08:07:38;8.50;;;7.70;;
18140;SDS011;9196;49.194;12.526;2023-05-10T08:10:05;7.63;;;6.87;;
18140;SDS011;9196;49.194;12.526;2023-05-10T08:12:33;7.30;;;6.60;;
18140;SDS011;9196;49.194;12.526;2023-05-10T08:15:00;10.00;;;8.40;;
18140;SDS011;9196;49.194;12.526;2023-05-10T08:17:28;8.00;;;7.30;;
18140;SDS011;9196;49.194;12.526;2023-05-10T08:19:55;7.93;;;7.20;;
18140;SDS011;9196;49.194;12.526;2023-05-10T08:22:22;8.47;;;7.17;;
18140;SDS011;9196;49.194;12.526;2023-05-10T08:24:48;31.33;;;7.00;;
18140;SDS011;9196;49.194;12.526;2023-05-10T08:27:15;8.73;;;7.50;;
18140;SDS011;9196;49.194;12.526;2023-05-10T08:29:42;8.40;;;7.60;;
18140;SDS011;9196;49.194;12.526;2023-05-10T08:32:09;7.70;;;7.00;;
18140;SDS011;9196;49.194;12.526;2023-05-10T08:34:37;11.67;;;7.57;;
18140;SDS011;9196;49.194;12.526;2023-05-10T08:37:03;10.70;;;6.43;;
18140;SDS011;9196;49.194;12.526;2023-05-10T08:39:33;7.67;;;6.53;;
18140;SDS011;9196;49.194;12.526;2023-05-10T08:42:01;8.83;;;7.10;;
18140;SDS011;9196;49.194;12.526;2023-05-10T08:44:30;10.07;;;7.00;;
18140;SDS011;9196;49.194;12.526;2023-05-10T08:47:00;9.70;;;8.10;;
18140;SDS011;9196;49.194;12.526;2023-05-10T08:49:30;6.57;;;6.07;;
18140;SDS011;9196;49.194;12.526;2023-05-10T08:51:59;7.63;;;6.93;;
18140;SDS011;9196;49.194;12.526;2023-05-10T08:54:31;5.90;;;5.43;;
18140;SDS011;9196;49.194;12.526;2023-05-10T08:56:58;6.70;;;6.03;;
18140;SDS011;9196;49.194;12.526;2023-05-10T08:59:25;7.03;;;6.40;;
18140;SDS011;9196;49.194;12.526;2023-05-10T09:01:51;8.47;;;6.70;;
18140;SDS011;9196;49.194;12.526;2023-05-10T09:04:20;11.33;;;7.03;;
18140;SDS011;9196;49.194;12.526;2023-05-10T09:06:47;8.00;;;7.00;;
18140;SDS011;9196;49.194;12.526;2023-05-10T09:09:15;6.37;;;5.77;;
18140;SDS011;9196;49.194;12.526;2023-05-10T09:11:43;6.70;;;6.10;;
18140;SDS011;9196;49.194;12.526;2023-05-10T09:14:10;6.83;;;6.17;;
18140;SDS011;9196;49.194;12.526;2023-05-10T09:16:39;4.93;;;4.63;;
18140;SDS011;9196;49.194;12.526;2023-05-10T09:19:06;7.03;;;6.33;;
18140;SDS011;9196;49.194;12.526;2023-05-10T09:21:34;6.90;;;6.30;;
18140;SDS011;9196;49.194;12.526;2023-05-10T09:24:03;6.50;;;5.80;;
18140;SDS011;9196;49.194;12.526;2023-05-10T09:26:32;7.07;;;6.00;;
18140;SDS011;9196;49.194;12.526;2023-05-10T09:29:00;6.27;;;5.67;;
18140;SDS011;9196;49.194;12.526;2023-05-10T09:31:43;6.07;;;5.57;;
18140;SDS011;9196;49.194;12.526;2023-05-10T09:34:15;7.00;;;6.30;;
18140;SDS011;9196;49.194;12.526;2023-05-10T09:36:52;6.23;;;5.70;;
18140;SDS011;9196;49.194;12.526;2023-05-10T09:39:20;5.40;;;5.00;;
18140;SDS011;9196;49.194;12.526;2023-05-10T09:41:48;7.33;;;5.80;;
18140;SDS011;9196;49.194;12.526;2023-05-10T09:44:16;7.33;;;6.63;;
18140;SDS011;9196;49.194;12.526;2023-05-10T09:46:48;6.43;;;5.93;;
18140;SDS011;9196;49.194;12.526;2023-05-10T09:49:16;5.93;;;5.27;;
18140;SDS011;9196;49.194;12.526;2023-05-10T09:51:43;5.13;;;4.67;;
18140;SDS011;9196;49.194;12.526;2023-05-10T09:54:11;7.63;;;6.73;;
18140;SDS011;9196;49.194;12.526;2023-05-10T09:56:38;5.70;;;5.17;;
18140;SDS011;9196;49.194;12.526;2023-05-10T09:59:10;4.70;;;4.30;;
18140;SDS011;9196;49.194;12.526;2023-05-10T10:01:38;5.63;;;5.20;;
18140;SDS011;9196;49.194;12.526;2023-05-10T10:04:06;6.23;;;5.00;;
18140;SDS011;9196;49.194;12.526;2023-05-10T10:06:36;6.33;;;5.73;;
18140;SDS011;9196;49.194;12.526;2023-05-10T10:09:04;6.40;;;4.80;;
18140;SDS011;9196;49.194;12.526;2023-05-10T10:11:33;5.20;;;4.80;;
18140;SDS011;9196;49.194;12.526;2023-05-10T10:14:00;5.40;;;5.00;;
18140;SDS011;9196;49.194;12.526;2023-05-10T10:16:29;4.80;;;4.30;;
18140;SDS011;9196;49.194;12.526;2023-05-10T10:18:57;5.53;;;5.13;;
18140;SDS011;9196;49.194;12.526;2023-05-10T10:21:24;4.30;;;4.00;;
18140;SDS011;9196;49.194;12.526;2023-05-10T10:23:51;6.10;;;4.50;;
18140;SDS011;9196;49.194;12.526;2023-05-10T10:26:19;5.33;;;4.93;;
18140;SDS011;9196;49.194;12.526;2023-05-10T10:28:48;5.00;;;4.60;;
18140;SDS011;9196;49.194;12.526;2023-05-10T10:31:24;4.20;;;3.90;;
18140;SDS011;9196;49.194;12.526;2023-05-10T10:34:03;4.90;;;4.50;;
18140;SDS011;9196;49.194;12.526;2023-05-10T10:36:33;5.33;;;4.27;;
18140;SDS011;9196;49.194;12.526;2023-05-10T10:39:08;4.87;;;4.57;;
18140;SDS011;9196;49.194;12.526;2023-05-10T10:41:36;4.73;;;4.33;;
18140;SDS011;9196;49.194;12.526;2023-05-10T10:44:33;4.80;;;4.50;;
18140;SDS011;9196;49.194;12.526;2023-05-10T10:47:04;4.33;;;3.97;;
18140;SDS011;9196;49.194;12.526;2023-05-10T10:49:37;4.20;;;3.80;;
18140;SDS011;9196;49.194;12.526;2023-05-10T10:55:00;4.93;;;4.53;;
18140;SDS011;9196;49.194;12.526;2023-05-10T10:57:31;4.67;;;4.27;;
18140;SDS011;9196;49.194;12.526;2023-05-10T11:02:44;5.27;;;4.77;;
18140;SDS011;9196;49.194;12.526;2023-05-10T11:08:10;4.07;;;3.87;;
18140;SDS011;9196;49.194;12.526;2023-05-10T11:13:33;4.83;;;4.53;;
18140;SDS011;9196;49.194;12.526;2023-05-10T11:16:13;6.77;;;4.27;;
18140;SDS011;9196;49.194;12.526;2023-05-10T11:18:51;4.27;;;3.97;;
18140;SDS011;9196;49.194;12.526;2023-05-10T11:21:25;4.73;;;4.20;;
18140;SDS011;9196;49.194;12.526;2023-05-10T11:23:52;5.07;;;4.27;;
18140;SDS011;9196;49.194;12.526;2023-05-10T11:26:22;5.00;;;4.60;;
18140;SDS011;9196;49.194;12.526;2023-05-10T11:28:51;6.67;;;4.70;;
18140;SDS011;9196;49.194;12.526;2023-05-10T11:31:19;4.70;;;3.83;;
18140;SDS011;9196;49.194;12.526;2023-05-10T11:33:47;5.40;;;4.00;;
18140;SDS011;9196;49.194;12.526;2023-05-10T11:36:15;5.30;;;4.90;;
18140;SDS011;9196;49.194;12.526;2023-05-10T11:38:45;3.70;;;3.50;;
18140;SDS011;9196;49.194;12.526;2023-05-10T11:41:12;4.03;;;3.73;;
18140;SDS011;9196;49.194;12.526;2023-05-10T11:43:39;3.70;;;3.40;;
18140;SDS011;9196;49.194;12.526;2023-05-10T11:46:07;4.63;;;4.33;;
18140;SDS011;9196;49.194;12.526;2023-05-10T11:48:35;3.60;;;3.40;;
18140;SDS011;9196;49.194;12.526;2023-05-10T11:51:02;4.80;;;3.83;;
18140;SDS011;9196;49.194;12.526;2023-05-10T11:53:30;5.93;;;4.67;;
18140;SDS011;9196;49.194;12.526;2023-05-10T11:56:03;5.50;;;4.90;;
18140;SDS011;9196;49.194;12.526;2023-05-10T11:58:31;4.40;;;4.10;;
18140;SDS011;9196;49.194;12.526;2023-05-10T12:00:58;3.57;;;3.27;;
18140;SDS011;9196;49.194;12.526;2023-05-10T12:03:26;3.83;;;3.63;;
18140;SDS011;9196;49.194;12.526;2023-05-10T12:05:53;4.23;;;3.93;;
18140;SDS011;9196;49.194;12.526;2023-05-10T12:08:21;6.33;;;3.67;;
18140;SDS011;9196;49.194;12.526;2023-05-10T12:10:49;3.60;;;3.40;;
18140;SDS011;9196;49.194;12.526;2023-05-10T12:13:18;4.10;;;3.80;;
18140;SDS011;9196;49.194;12.526;2023-05-10T12:15:46;5.57;;;5.10;;
18140;SDS011;9196;49.194;12.526;2023-05-10T12:18:13;3.37;;;3.17;;
18140;SDS011;9196;49.194;12.526;2023-05-10T12:20:40;2.63;;;2.53;;
18140;SDS011;9196;49.194;12.526;2023-05-10T12:23:08;2.93;;;2.73;;
18140;SDS011;9196;49.194;12.526;2023-05-10T12:25:36;2.90;;;2.80;;
18140;SDS011;9196;49.194;12.526;2023-05-10T12:28:04;2.67;;;2.57;;
18140;SDS011;9196;49.194;12.526;2023-05-10T12:30:34;3.00;;;2.80;;
18140;SDS011;9196;49.194;12.526;2023-05-10T12:33:03;4.10;;;3.70;;
18140;SDS011;9196;49.194;12.526;2023-05-10T12:35:42;3.37;;;3.10;;
18140;SDS011;9196;49.194;12.526;2023-05-10T12:38:26;3.37;;;2.70;;
18140;SDS011;9196;49.194;12.526;2023-05-10T12:40:56;3.80;;;2.47;;
18140;SDS011;9196;49.194;12.526;2023-05-10T12:43:23;2.67;;;2.00;;
18140;SDS011;9196;49.194;12.526;2023-05-10T12:45:51;2.60;;;2.50;;
18140;SDS011;9196;49.194;12.526;2023-05-10T12:48:18;4.67;;;2.00;;
18140;SDS011;9196;49.194;12.526;2023-05-10T12:50:45;2.43;;;2.23;;
18140;SDS011;9196;49.194;12.526;2023-05-10T12:53:12;2.43;;;2.33;;
18140;SDS011;9196;49.194;12.526;2023-05-10T12:55:40;2.33;;;2.23;;
18140;SDS011;9196;49.194;12.526;2023-05-10T12:58:07;2.73;;;2.57;;
18140;SDS011;9196;49.194;12.526;2023-05-10T13:00:33;2.40;;;2.23;;
18140;SDS011;9196;49.194;12.526;2023-05-10T13:03:06;2.67;;;2.47;;
18140;SDS011;9196;49.194;12.526;2023-05-10T13:05:34;3.80;;;2.83;;
18140;SDS011;9196;49.194;12.526;2023-05-10T13:08:03;7.27;;;3.17;;
18140;SDS011;9196;49.194;12.526;2023-05-10T13:10:31;2.80;;;2.60;;
18140;SDS011;9196;49.194;12.526;2023-05-10T13:13:05;2.60;;;2.50;;
18140;SDS011;9196;49.194;12.526;2023-05-10T13:15:33;3.40;;;3.20;;
18140;SDS011;9196;49.194;12.526;2023-05-10T13:18:14;3.00;;;2.80;;
18140;SDS011;9196;49.194;12.526;2023-05-10T13:20:41;4.13;;;3.40;;
18140;SDS011;9196;49.194;12.526;2023-05-10T13:23:09;3.10;;;2.80;;
18140;SDS011;9196;49.194;12.526;2023-05-10T13:25:37;4.50;;;2.50;;
18140;SDS011;9196;49.194;12.526;2023-05-10T13:28:04;2.27;;;2.10;;
18140;SDS011;9196;49.194;12.526;2023-05-10T13:30:42;3.27;;;3.03;;
18140;SDS011;9196;49.194;12.526;2023-05-10T13:33:09;2.80;;;2.60;;
18140;SDS011;9196;49.194;12.526;2023-05-10T13:35:41;2.80;;;2.60;;
18140;SDS011;9196;49.194;12.526;2023-05-10T13:38:08;3.03;;;2.73;;
18140;SDS011;9196;49.194;12.526;2023-05-10T13:40:35;2.90;;;2.70;;
18140;SDS011;9196;49.194;12.526;2023-05-10T13:43:02;3.17;;;2.30;;
18140;SDS011;9196;49.194;12.526;2023-05-10T13:45:29;2.20;;;2.10;;
18140;SDS011;9196;49.194;12.526;2023-05-10T13:47:57;2.90;;;1.93;;
18140;SDS011;9196;49.194;12.526;2023-05-10T13:50:24;2.80;;;2.60;;
18140;SDS011;9196;49.194;12.526;2023-05-10T13:52:53;2.20;;;2.10;;
18140;SDS011;9196;49.194;12.526;2023-05-10T13:55:20;1.90;;;1.80;;
18140;SDS011;9196;49.194;12.526;2023-05-10T13:57:47;2.30;;;2.20;;
18140;SDS011;9196;49.194;12.526;2023-05-10T14:00:15;2.60;;;2.50;;
18140;SDS011;9196;49.194;12.526;2023-05-10T14:02:42;3.83;;;3.50;;
18140;SDS011;9196;49.194;12.526;2023-05-10T14:05:09;21.10;;;13.03;;
18140;SDS011;9196;49.194;12.526;2023-05-10T14:07:37;8.53;;;4.40;;
18140;SDS011;9196;49.194;12.526;2023-05-10T14:10:06;26.47;;;16.73;;
18140;SDS011;9196;49.194;12.526;2023-05-10T14:12:34;5.73;;;3.67;;
18140;SDS011;9196;49.194;12.526;2023-05-10T14:15:01;5.67;;;3.50;;
18140;SDS011;9196;49.194;12.526;2023-05-10T14:17:30;3.73;;;3.10;;
18140;SDS011;9196;49.194;12.526;2023-05-10T14:19:57;4.67;;;2.63;;
18140;SDS011;9196;49.194;12.526;2023-05-10T14:22:24;3.50;;;3.07;;
18140;SDS011;9196;49.194;12.526;2023-05-10T14:24:51;2.90;;;2.80;;
18140;SDS011;9196;49.194;12.526;2023-05-10T14:27:19;4.50;;;2.87;;
18140;SDS011;9196;49.194;12.526;2023-05-10T14:29:46;6.83;;;3.50;;
18140;SDS011;9196;49.194;12.526;2023-05-10T14:32:13;2.63;;;2.53;;
18140;SDS011;9196;49.194;12.526;2023-05-10T14:34:40;2.60;;;2.50;;
18140;SDS011;9196;49.194;12.526;2023-05-10T14:37:07;3.50;;;3.20;;
18140;SDS011;9196;49.194;12.526;2023-05-10T14:39:35;2.40;;;2.30;;
18140;SDS011;9196;49.194;12.526;2023-05-10T14:42:02;2.43;;;2.13;;
18140;SDS011;9196;49.194;12.526;2023-05-10T14:44:31;2.43;;;2.33;;
18140;SDS011;9196;49.194;12.526;2023-05-10T14:46:58;3.93;;;2.30;;
18140;SDS011;9196;49.194;12.526;2023-05-10T14:49:24;3.40;;;3.10;;
18140;SDS011;9196;49.194;12.526;2023-05-10T14:51:51;4.47;;;3.43;;
18140;SDS011;9196;49.194;12.526;2023-05-10T14:54:18;2.87;;;2.23;;
18140;SDS011;9196;49.194;12.526;2023-05-10T14:56:45;3.03;;;2.83;;
18140;SDS011;9196;49.194;12.526;2023-05-10T14:59:14;3.07;;;2.73;;
18140;SDS011;9196;49.194;12.526;2023-05-10T15:01:43;2.80;;;2.60;;
18140;SDS011;9196;49.194;12.526;2023-05-10T15:04:10;7.90;;;6.40;;
18140;SDS011;9196;49.194;12.526;2023-05-10T15:06:38;7.80;;;5.27;;
18140;SDS011;9196;49.194;12.526;2023-05-10T15:09:04;5.17;;;4.67;;